Terminal Aerodrome Forecast
Issued by NWS Sterling, VA

Current Version | Previous Version | Text Only | Print | Product List | Glossary On
Versions: 1 2 3 4 5 6 7 8 9 10 11 12 13 14 15 16 17 18 19 20 21 22 23
000
FTUS41 KLWX 180500
TAFIAD
TAF
KIAD 180534Z 1806/1912 VRB03KT P6SM SCT100
     FM181400 12004KT P6SM BKN050
     FM182300 15004KT P6SM BKN050
     FM190300 VRB03KT P6SM BKN015 OVC050
     FM190600 VRB03KT 2SM BR OVC008=

USA.gov is the U.S. government's official web portal to all federal, state and local government web resources and services.